Time;durP1;ratioP1;P1;durP2;ratioP2;P2;SDS_P1;SDS_P2;PMS_P1;PMS_P2;Temp;Humidity;BMP_temperature;BMP_pressure;BME280_temperature;BME280_humidity;BME280_pressure;Samples;Min_cycle;Max_cycle;Signal;HPM_P1;HPM_P2
2024/03/19 00:02:19;;;;;;;1.90;1.40;;;11.50;73.20;;;6.79;100.00;95656.03;4989681;28;20033;-57
2024/03/19 00:04:45;;;;;;;1.90;1.70;;;11.40;73.10;;;6.76;100.00;95659.16;4979736;28;20029;-53
2024/03/19 00:07:11;;;;;;;2.58;2.17;;;11.40;73.10;;;6.68;100.00;95657.69;4990140;28;20077;-55
2024/03/19 00:09:37;;;;;;;2.10;1.70;;;11.40;73.10;;;6.75;100.00;95652.25;4986806;28;20084;-50
2024/03/19 00:12:03;;;;;;;2.10;1.60;;;11.40;73.20;;;6.76;100.00;95651.19;4989967;28;20052;-51
2024/03/19 00:14:28;;;;;;;2.10;1.90;;;11.40;73.10;;;6.77;100.00;95650.16;4986270;28;20041;-48
2024/03/19 00:16:54;;;;;;;2.65;2.10;;;11.40;73.00;;;6.76;100.00;95645.91;4989521;28;20120;-50
2024/03/19 00:19:20;;;;;;;3.50;1.98;;;11.40;72.90;;;6.75;100.00;95647.75;5001441;28;20443;-50
2024/03/19 00:21:46;;;;;;;2.55;2.22;;;11.40;72.90;;;6.73;100.00;95649.81;4987395;28;20040;-54
2024/03/19 00:24:12;;;;;;;2.58;2.35;;;11.30;72.90;;;6.71;100.00;95649.28;4985485;28;20472;-53
2024/03/19 00:26:38;;;;;;;3.28;2.00;;;11.30;72.90;;;6.69;100.00;95646.84;4988818;28;20038;-57
2024/03/19 00:29:07;;;;;;;2.80;2.50;;;11.30;72.80;;;6.61;100.00;95652.56;4990091;28;20018;-53
2024/03/19 00:31:33;;;;;;;4.00;3.13;;;11.30;72.80;;;6.57;100.00;95646.09;5002721;28;20031;-50
2024/03/19 00:33:59;;;;;;;5.55;3.78;;;11.30;72.80;;;6.59;100.00;95645.88;4985166;28;20105;-54
2024/03/19 00:36:25;;;;;;;4.32;3.47;;;11.20;72.70;;;6.56;100.00;95644.50;4989585;28;20148;-53
2024/03/19 00:38:51;;;;;;;5.22;3.28;;;11.20;72.80;;;6.54;100.00;95643.13;4984598;28;20108;-53
2024/03/19 00:41:17;;;;;;;4.57;3.60;;;11.20;72.80;;;6.48;100.00;95632.44;4987770;28;20504;-54
2024/03/19 00:43:43;;;;;;;5.28;4.30;;;11.10;72.80;;;6.45;100.00;95638.22;4989319;28;20405;-53
2024/03/19 00:46:08;;;;;;;4.53;3.83;;;11.20;72.90;;;6.44;100.00;95636.63;4988589;28;20029;-55
2024/03/19 00:48:34;;;;;;;4.72;3.78;;;11.10;72.80;;;6.41;100.00;95633.66;4989836;28;20075;-54
2024/03/19 00:51:00;;;;;;;6.45;4.75;;;11.10;72.80;;;6.35;100.00;95637.22;4988332;28;20041;-51
2024/03/19 00:53:26;;;;;;;5.65;4.05;;;11.00;72.70;;;6.32;100.00;95635.06;4989735;28;20645;-54
2024/03/19 00:55:51;;;;;;;6.00;4.68;;;11.00;72.80;;;6.29;100.00;95632.88;4989253;28;20025;-55
2024/03/19 00:58:19;;;;;;;5.75;4.63;;;11.00;72.80;;;6.22;100.00;95631.19;4988629;28;20018;-51
2024/03/19 01:00:46;;;;;;;6.28;5.00;;;11.00;72.70;;;6.16;100.00;95624.19;4987628;28;20548;-53
2024/03/19 01:03:11;;;;;;;5.00;4.43;;;10.90;72.70;;;6.12;100.00;95628.34;4989012;28;20499;-50
2024/03/19 01:05:37;;;;;;;5.57;4.03;;;10.90;72.70;;;6.08;100.00;95629.03;4985070;28;20026;-49
2024/03/19 01:08:06;;;;;;;6.20;4.47;;;10.80;72.60;;;6.00;100.00;95624.94;4989565;28;20112;-51
2024/03/19 01:10:32;;;;;;;6.13;4.32;;;10.80;72.60;;;5.89;100.00;95623.06;4988464;28;20566;-54
2024/03/19 01:12:58;;;;;;;9.57;4.72;;;10.70;72.60;;;5.83;100.00;95619.56;5003763;28;20034;-54
2024/03/19 01:15:26;;;;;;;6.53;5.15;;;10.70;72.60;;;5.82;100.00;95617.13;4988255;28;20075;-52
2024/03/19 01:17:51;;;;;;;5.30;4.50;;;10.60;72.60;;;5.77;100.00;95617.84;4989195;28;20025;-53
2024/03/19 01:20:17;;;;;;;6.72;4.15;;;10.50;72.60;;;5.68;100.00;95616.59;4988877;28;20026;-51
2024/03/19 01:22:43;;;;;;;5.47;3.92;;;10.50;72.50;;;5.49;100.00;95614.09;4988359;28;20057;-50
2024/03/19 01:25:10;;;;;;;7.25;4.50;;;10.40;72.30;;;5.44;100.00;95613.16;4989377;28;20477;-50
2024/03/19 01:27:36;;;;;;;4.95;4.03;;;10.30;72.30;;;5.36;100.00;95609.03;4991189;28;20117;-56
2024/03/19 01:30:03;;;;;;;5.53;3.95;;;10.20;72.10;;;5.25;100.00;95608.00;5003755;28;20033;-50
2024/03/19 01:32:29;;;;;;;6.20;3.72;;;10.10;72.10;;;5.19;100.00;95608.91;4992154;28;20123;-56
2024/03/19 01:34:55;;;;;;;6.10;4.43;;;10.00;72.00;;;5.07;100.00;95610.75;4992730;28;20507;-52
2024/03/19 01:37:22;;;;;;;7.18;4.85;;;9.90;72.00;;;4.99;100.00;95609.25;4992957;28;20034;-52
2024/03/19 01:39:48;;;;;;;5.95;4.53;;;9.90;72.10;;;4.88;100.00;95612.69;4991594;28;20018;-56
2024/03/19 01:42:14;;;;;;;6.18;4.28;;;9.70;72.00;;;4.78;100.00;95612.44;5006136;28;20401;-52
2024/03/19 01:44:40;;;;;;;5.07;4.10;;;9.70;72.00;;;4.67;100.00;95607.94;4989617;28;20022;-53
2024/03/19 01:47:07;;;;;;;7.43;3.95;;;9.60;72.00;;;4.55;100.00;95603.44;4991299;28;20030;-57
2024/03/19 01:49:34;;;;;;;5.85;4.00;;;9.50;72.10;;;4.48;100.00;95608.03;4992761;28;20020;-53
2024/03/19 01:52:02;;;;;;;7.80;3.85;;;9.40;72.10;;;4.47;100.00;95616.16;4991128;28;20476;-52
2024/03/19 01:54:33;;;;;;;6.13;3.88;;;9.30;72.10;;;4.39;100.00;95609.38;4987789;28;20025;-50
2024/03/19 01:57:00;;;;;;;7.10;3.95;;;9.20;72.10;;;4.31;100.00;95612.31;4991290;28;20065;-50
2024/03/19 01:59:26;;;;;;;9.32;4.25;;;9.20;72.30;;;4.22;100.00;95611.81;4992606;28;20116;-48
2024/03/19 02:01:52;;;;;;;5.53;4.18;;;9.10;72.20;;;4.14;100.00;95612.94;4991838;28;20029;-51
2024/03/19 02:04:18;;;;;;;11.35;4.50;;;9.00;72.20;;;4.05;100.00;95614.28;4991743;28;20033;-49
2024/03/19 02:06:45;;;;;;;7.50;4.57;;;9.00;72.30;;;4.04;100.00;95614.50;4991895;28;20393;-48
2024/03/19 02:09:12;;;;;;;18.98;6.88;;;8.90;72.30;;;4.01;100.00;95607.84;4991516;28;20087;-55
2024/03/19 02:11:38;;;;;;;12.52;6.43;;;8.80;72.50;;;4.01;100.00;95597.31;4991689;28;20025;-53
2024/03/19 02:14:06;;;;;;;10.63;5.88;;;8.80;72.70;;;3.96;100.00;95604.28;4989453;28;20029;-51
2024/03/19 02:16:34;;;;;;;10.30;6.70;;;8.80;72.80;;;3.98;100.00;95602.19;4991039;28;20025;-53
2024/03/19 02:19:06;;;;;;;11.70;7.10;;;8.70;73.00;;;4.01;100.00;95596.50;4992198;28;20470;-54
2024/03/19 02:21:34;;;;;;;11.23;6.72;;;8.70;74.00;;;4.03;100.00;95607.63;4988431;28;20037;-55
2024/03/19 02:24:03;;;;;;;15.95;7.68;;;8.70;73.20;;;4.03;100.00;95597.88;4992191;28;20029;-55
2024/03/19 02:26:31;;;;;;;12.80;7.22;;;8.70;74.10;;;4.06;100.00;95604.53;4986352;28;20026;-53
2024/03/19 02:28:59;;;;;;;11.82;7.05;;;8.70;73.40;;;4.08;100.00;95603.28;4990893;28;20034;-52
2024/03/19 02:31:28;;;;;;;9.77;6.75;;;8.70;73.50;;;4.11;100.00;95599.41;4991546;28;20105;-53
2024/03/19 02:33:56;;;;;;;11.60;6.28;;;8.80;73.70;;;4.05;100.00;95595.03;4990680;28;20028;-55
2024/03/19 02:36:25;;;;;;;8.93;5.82;;;8.80;73.60;;;4.07;100.00;95590.31;4991916;28;20031;-56
2024/03/19 02:38:52;;;;;;;8.55;5.80;;;8.80;73.60;;;4.09;100.00;95596.19;4988531;28;20384;-51
2024/03/19 02:41:18;;;;;;;10.05;5.65;;;8.80;73.60;;;4.06;100.00;95594.78;4990107;28;20113;-54
2024/03/19 02:43:44;;;;;;;7.25;5.13;;;8.80;73.50;;;4.03;100.00;95597.88;4993254;28;20084;-53
2024/03/19 02:46:10;;;;;;;9.20;5.80;;;8.80;73.50;;;4.00;100.00;95600.97;4991612;28;20030;-54
2024/03/19 02:48:36;;;;;;;10.85;5.85;;;8.80;73.40;;;3.97;100.00;95597.97;4987318;28;20045;-57
2024/03/19 02:51:02;;;;;;;13.63;5.90;;;8.80;73.50;;;3.93;100.00;95595.78;4988959;28;20105;-50
2024/03/19 02:53:28;;;;;;;12.48;6.38;;;8.70;73.30;;;3.92;100.00;95585.47;4990037;28;20132;-55
2024/03/19 02:55:55;;;;;;;15.88;5.80;;;8.70;73.30;;;3.87;100.00;95591.38;4990834;28;20026;-53
2024/03/19 02:58:22;;;;;;;11.82;5.95;;;8.70;73.30;;;3.84;100.00;95585.75;5004318;23;20053;-48
2024/03/19 03:00:47;;;;;;;14.57;6.35;;;8.60;73.20;;;3.79;100.00;95594.34;4950540;28;20055;-54
2024/03/19 03:03:13;;;;;;;12.85;5.60;;;8.60;73.20;;;3.74;100.00;95599.47;4947558;28;20054;-49
2024/03/19 03:05:47;;;;;;;12.23;6.10;;;8.60;73.30;;;3.78;100.00;95598.00;4944882;28;20031;-50
2024/03/19 03:08:14;;;;;;;15.93;7.10;;;8.60;73.40;;;3.84;100.00;95604.22;4947033;28;20034;-48
2024/03/19 03:10:41;;;;;;;49.17;8.40;;;8.60;73.50;;;3.87;100.00;95603.75;4945181;28;20058;-50
2024/03/19 03:13:07;;;;;;;19.35;7.50;;;8.50;73.40;;;3.84;100.00;95599.75;4945261;28;20031;-53
2024/03/19 03:15:33;;;;;;;107.00;12.05;;;8.60;73.50;;;3.80;100.00;95598.56;4944247;28;20109;-49
2024/03/19 03:17:59;;;;;;;124.68;11.73;;;8.60;73.40;;;3.76;100.00;95600.06;4950642;28;20162;-49
2024/03/19 03:20:26;;;;;;;252.63;17.08;;;8.50;73.30;;;3.68;100.00;95598.50;4948164;28;20046;-56
2024/03/19 03:22:52;;;;;;;410.58;27.55;;;8.50;73.40;;;3.72;100.00;95597.03;4950886;28;20380;-50
2024/03/19 03:25:18;;;;;;;516.58;29.73;;;8.50;73.40;;;3.73;100.00;95597.88;4950796;28;20026;-49
2024/03/19 03:27:45;;;;;;;439.92;28.92;;;8.50;73.50;;;3.68;100.00;95597.72;4946559;28;20114;-52
2024/03/19 03:30:13;;;;;;;309.15;22.15;;;8.40;73.50;;;3.72;100.00;95604.94;4949314;28;20018;-51
2024/03/19 03:32:45;;;;;;;478.10;27.95;;;8.50;73.80;;;3.75;100.00;95595.00;4948158;28;20401;-52
2024/03/19 03:35:13;;;;;;;385.67;23.88;;;8.40;73.80;;;3.74;100.00;95598.66;4949208;28;20173;-49
2024/03/19 03:37:40;;;;;;;489.88;32.05;;;8.50;73.90;;;3.90;100.00;95608.59;4947589;28;20082;-48
2024/03/19 03:40:19;;;;;;;639.67;38.45;;;8.50;74.20;;;3.99;100.00;95603.84;4949362;28;20050;-52
2024/03/19 03:42:46;;;;;;;546.03;32.70;;;8.50;74.40;;;4.06;100.00;95604.53;4952562;28;20569;-51
2024/03/19 03:45:17;;;;;;;616.97;37.47;;;8.50;74.40;;;4.07;100.00;95598.22;4954745;28;20057;-50
2024/03/19 03:47:43;;;;;;;595.70;34.05;;;8.60;74.60;;;4.09;100.00;95598.81;4950459;28;20031;-49
2024/03/19 03:50:12;;;;;;;593.55;34.55;;;8.60;74.50;;;4.10;100.00;95605.69;4951750;28;20340;-48
2024/03/19 03:52:38;;;;;;;494.42;31.38;;;8.60;74.90;;;4.05;100.00;95605.56;4947583;28;20026;-49
2024/03/19 03:55:11;;;;;;;318.02;25.42;;;8.70;74.40;;;4.02;100.00;95606.81;4951475;28;20054;-49
2024/03/19 03:57:40;;;;;;;;;;;8.60;74.30;;;4.00;100.00;95606.22;4950320;28;20045;-51
2024/03/19 04:00:09;;;;;;;79.50;16.35;;;8.60;74.00;;;3.94;100.00;95607.91;4951372;28;19917;-53
2024/03/19 04:02:41;;;;;;;76.57;15.43;;;8.60;74.00;;;3.89;100.00;95607.78;4950583;28;20034;-50
2024/03/19 04:05:08;;;;;;;89.93;15.87;;;8.60;74.00;;;3.88;100.00;95613.28;4947360;28;20026;-49
2024/03/19 04:07:45;;;;;;;65.10;13.95;;;8.60;73.90;;;3.90;100.00;95613.88;4950884;28;20321;-48
2024/03/19 04:10:16;;;;;;;55.63;13.23;;;8.60;73.80;;;3.85;100.00;95611.88;4947849;28;20030;-50
2024/03/19 04:12:44;;;;;;;49.40;12.95;;;8.50;73.70;;;3.78;100.00;95608.53;4951234;28;20042;-49
2024/03/19 04:15:11;;;;;;;29.65;11.88;;;8.50;73.50;;;3.69;100.00;95610.66;4950437;28;20041;-49
2024/03/19 04:17:39;;;;;;;92.53;13.80;;;8.50;73.50;;;3.62;100.00;95612.56;4950801;28;20025;-50
2024/03/19 04:20:10;;;;;;;180.43;16.20;;;8.40;73.40;;;3.59;100.00;95614.84;4951132;28;20041;-53
2024/03/19 04:22:39;;;;;;;515.38;26.80;;;8.40;73.40;;;3.57;100.00;95616.88;4950285;28;20133;-52
2024/03/19 04:25:10;;;;;;;542.00;27.70;;;8.40;73.50;;;3.53;100.00;95616.50;4951049;28;20034;-49
2024/03/19 04:27:37;;;;;;;483.75;27.98;;;8.30;73.50;;;3.50;100.00;95610.88;4950105;28;20034;-52
2024/03/19 04:30:05;;;;;;;499.35;28.70;;;8.30;73.60;;;3.50;100.00;95606.41;4950953;28;20026;-48
2024/03/19 04:32:31;;;;;;;201.75;19.73;;;8.30;73.80;;;3.53;100.00;95607.81;4949388;28;20044;-49
2024/03/19 04:34:57;;;;;;;418.17;27.70;;;8.30;73.90;;;3.56;100.00;95602.91;4950722;28;20038;-48
2024/03/19 04:37:23;;;;;;;312.38;23.38;;;8.30;74.10;;;3.61;100.00;95603.06;4950549;28;20030;-54
2024/03/19 04:39:49;;;;;;;448.65;26.70;;;8.30;74.30;;;3.73;100.00;95605.78;4947398;28;20072;-50
2024/03/19 04:42:18;;;;;;;385.38;27.63;;;8.30;74.40;;;3.85;100.00;95611.88;4946263;28;20030;-49
2024/03/19 04:44:46;;;;;;;384.75;26.95;;;8.40;74.70;;;3.97;100.00;95611.16;4950544;28;20031;-49
2024/03/19 04:47:16;;;;;;;110.03;16.95;;;8.50;75.00;;;4.03;100.00;95607.63;4947270;28;20616;-54
2024/03/19 04:49:42;;;;;;;98.13;15.82;;;8.60;75.00;;;4.07;100.00;95609.56;4949446;28;20463;-51
2024/03/19 04:52:09;;;;;;;83.47;15.30;;;8.70;75.00;;;4.08;100.00;95616.47;4944530;28;20065;-51
2024/03/19 04:54:34;;;;;;;90.72;15.38;;;8.70;74.80;;;4.10;100.00;95619.69;4965703;28;20562;-53
2024/03/19 04:57:00;;;;;;;156.98;17.75;;;8.80;74.70;;;4.13;100.00;95623.72;4947210;28;20035;-52
2024/03/19 04:59:26;;;;;;;195.75;18.67;;;8.90;74.60;;;4.15;100.00;95629.56;4949652;28;20121;-54
2024/03/19 05:01:52;;;;;;;215.68;18.42;;;8.90;74.50;;;4.18;100.00;95627.28;4949380;28;20037;-53
2024/03/19 05:04:20;;;;;;;338.83;23.58;;;9.00;74.50;;;4.21;100.00;95633.94;4951913;28;20049;-48
2024/03/19 05:06:46;;;;;;;320.83;25.08;;;9.00;74.40;;;4.26;100.00;95635.91;4952605;28;20110;-51
2024/03/19 05:09:14;;;;;;;348.00;24.20;;;9.10;74.40;;;4.30;100.00;95637.09;4952140;28;20030;-50
2024/03/19 05:11:41;;;;;;;255.90;23.05;;;9.10;74.40;;;4.36;100.00;95633.56;4952047;28;20029;-55
2024/03/19 05:14:07;;;;;;;428.23;26.88;;;9.20;74.30;;;4.41;100.00;95633.69;4953176;28;20034;-54
2024/03/19 05:16:33;;;;;;;479.20;26.75;;;9.30;74.40;;;4.47;100.00;95635.41;4952506;28;20045;-50
2024/03/19 05:18:58;;;;;;;416.70;26.92;;;9.30;74.40;;;4.50;100.00;95642.88;4953451;28;20026;-51
2024/03/19 05:21:24;;;;;;;511.08;33.25;;;9.40;74.50;;;4.55;100.00;95635.09;4950428;28;20066;-51
2024/03/19 05:23:50;;;;;;;460.35;29.98;;;9.40;74.40;;;4.61;100.00;95639.50;4953802;28;20392;-49
2024/03/19 05:26:16;;;;;;;896.00;58.25;;;9.40;74.30;;;4.67;100.00;95640.44;4953548;28;20022;-52
2024/03/19 05:28:41;;;;;;;345.58;25.23;;;9.50;74.40;;;4.68;100.00;95638.59;4953056;28;20110;-53
2024/03/19 05:31:28;;;;;;;505.58;33.35;;;9.50;74.40;;;4.74;100.00;95638.50;4952389;28;20031;-51
2024/03/19 05:33:57;;;;;;;516.05;32.22;;;9.60;74.40;;;4.78;100.00;95644.91;4951501;28;20544;-53
2024/03/19 05:36:24;;;;;;;417.10;29.92;;;9.70;74.40;;;4.83;100.00;95641.59;4952768;28;20030;-53
2024/03/19 05:38:51;;;;;;;639.97;40.03;;;9.70;74.30;;;4.85;100.00;95640.31;4949814;28;20121;-49
2024/03/19 05:41:16;;;;;;;558.50;35.08;;;9.80;74.30;;;4.89;100.00;95645.97;4952949;28;20026;-52
2024/03/19 05:43:47;;;;;;;499.42;32.38;;;9.80;74.20;;;4.92;100.00;95640.25;4955143;28;20133;-53
2024/03/19 05:46:13;;;;;;;637.90;40.08;;;9.90;74.20;;;4.96;100.00;95636.13;4948370;28;20534;-48
2024/03/19 05:48:40;;;;;;;466.70;32.70;;;9.90;74.20;;;5.00;100.00;95641.75;4953860;28;20070;-48
2024/03/19 05:51:08;;;;;;;409.35;29.13;;;9.90;74.10;;;5.04;100.00;95637.59;4947108;28;20033;-51
2024/03/19 05:53:35;;;;;;;365.52;25.85;;;9.90;74.20;;;5.09;100.00;95645.66;4954211;28;20061;-48
2024/03/19 05:56:04;;;;;;;394.70;28.27;;;10.00;74.20;;;5.17;100.00;95647.16;4953775;28;20046;-50
2024/03/19 05:58:31;;;;;;;421.15;27.85;;;10.00;74.30;;;5.20;100.00;95642.22;4951291;28;20053;-49
2024/03/19 06:00:58;;;;;;;359.83;27.27;;;10.10;74.30;;;5.25;100.00;95646.81;4953213;28;20041;-52
2024/03/19 06:03:24;;;;;;;377.75;28.15;;;10.20;74.30;;;5.30;100.00;95639.81;4951642;28;20050;-54
2024/03/19 06:05:58;;;;;;;489.20;33.22;;;10.20;74.30;;;5.38;100.00;95645.78;4953777;28;20023;-50
2024/03/19 06:08:27;;;;;;;540.75;34.55;;;10.30;74.30;;;5.44;100.00;95639.59;4953435;28;20031;-54
2024/03/19 06:10:53;;;;;;;417.40;28.48;;;10.30;74.30;;;5.51;100.00;95632.34;4949734;28;20027;-49
2024/03/19 06:13:19;;;;;;;539.03;33.63;;;10.40;74.30;;;5.55;100.00;95642.22;4952378;28;20042;-50
2024/03/19 06:15:45;;;;;;;459.58;29.85;;;10.50;74.40;;;5.60;100.00;95646.81;4952218;28;20030;-54
2024/03/19 06:18:11;;;;;;;520.00;32.72;;;10.50;74.40;;;5.68;100.00;95653.59;4953426;28;20457;-53
2024/03/19 06:20:37;;;;;;;485.00;31.77;;;10.50;74.40;;;5.73;100.00;95651.84;4951403;28;20507;-53
2024/03/19 06:23:03;;;;;;;418.80;25.48;;;10.60;74.40;;;5.82;100.00;95651.50;4952862;28;20121;-52
2024/03/19 06:25:29;;;;;;;432.50;32.13;;;10.70;74.40;;;5.84;100.00;95654.72;4953427;28;20073;-52
2024/03/19 06:27:55;;;;;;;506.63;32.28;;;10.80;74.40;;;5.92;100.00;95652.53;4961771;28;20034;-54
2024/03/19 06:30:21;;;;;;;438.52;30.50;;;10.80;74.30;;;5.98;100.00;95642.88;4959871;28;20377;-49
2024/03/19 06:32:47;;;;;;;479.40;28.88;;;10.90;74.40;;;6.05;100.00;95653.31;4959377;28;20056;-49
2024/03/19 06:35:14;;;;;;;534.38;31.98;;;11.00;74.40;;;6.11;100.00;95649.72;4960616;28;20026;-49
2024/03/19 06:37:43;;;;;;;356.27;24.60;;;11.10;74.40;;;6.12;100.00;95648.72;4955359;28;20495;-53
2024/03/19 06:40:10;;;;;;;390.85;25.08;;;11.10;74.20;;;6.18;100.00;95651.22;4958283;28;20413;-51
2024/03/19 06:42:37;;;;;;;509.33;30.33;;;11.20;74.20;;;6.24;100.00;95652.13;4957620;28;20031;-52
2024/03/19 06:45:04;;;;;;;313.27;20.02;;;11.30;75.00;;;6.32;100.00;95658.88;4952502;28;20027;-49
2024/03/19 06:47:30;;;;;;;379.33;22.73;;;11.30;74.20;;;6.33;100.00;95663.94;4954557;28;20034;-50
2024/03/19 06:49:56;;;;;;;197.73;16.27;;;11.40;74.10;;;6.43;100.00;95664.13;4955266;28;20037;-51
2024/03/19 06:52:22;;;;;;;338.02;23.23;;;11.50;74.10;;;6.42;100.00;95667.78;4951576;28;20026;-50
2024/03/19 06:54:49;;;;;;;273.88;20.27;;;11.60;74.00;;;6.46;100.00;95663.66;4952683;28;20478;-50
2024/03/19 06:57:16;;;;;;;196.88;17.15;;;11.70;74.00;;;6.54;100.00;95659.81;4950359;28;20081;-49
2024/03/19 06:59:42;;;;;;;195.32;18.58;;;11.70;73.80;;;6.55;100.00;95661.44;4952509;28;20489;-53
2024/03/19 07:02:11;;;;;;;231.40;17.45;;;11.80;73.70;;;6.59;100.00;95664.41;4950303;28;20072;-51
2024/03/19 07:04:37;;;;;;;144.00;15.02;;;11.80;73.60;;;6.64;100.00;95669.78;4950188;28;20100;-49
2024/03/19 07:07:03;;;;;;;217.60;19.92;;;11.90;73.50;;;6.67;100.00;95664.81;4952323;28;20477;-54
2024/03/19 07:09:31;;;;;;;133.15;14.10;;;12.00;73.50;;;6.69;100.00;95670.69;4951295;28;20022;-49
2024/03/19 07:11:58;;;;;;;187.50;16.70;;;12.00;73.30;;;6.79;100.00;95671.91;4951971;28;20049;-53
2024/03/19 07:14:24;;;;;;;111.53;12.77;;;12.10;73.20;;;6.54;100.00;95672.25;4952558;28;20030;-51
2024/03/19 07:16:50;;;;;;;115.22;13.48;;;12.20;73.00;;;6.56;100.00;95673.63;4951393;28;20038;-53
2024/03/19 07:19:16;;;;;;;101.60;12.30;;;12.20;72.90;;;6.62;100.00;95670.03;4952240;28;20541;-53
2024/03/19 07:21:42;;;;;;;66.72;11.38;;;12.20;72.80;;;6.70;100.00;95660.88;4949740;28;20400;-51
2024/03/19 07:24:07;;;;;;;98.60;11.65;;;12.20;72.70;;;6.80;100.00;95670.84;4951974;28;20019;-51
2024/03/19 07:26:34;;;;;;;116.43;12.02;;;12.30;72.70;;;6.93;100.00;95676.66;4951855;28;20544;-52
2024/03/19 07:29:00;;;;;;;63.85;12.65;;;12.40;72.80;;;6.98;100.00;95673.28;4952012;28;20109;-49
2024/03/19 07:31:26;;;;;;;77.60;10.88;;;12.40;72.80;;;6.80;100.00;95673.50;4951694;28;20640;-49
2024/03/19 07:33:52;;;;;;;69.07;10.60;;;12.50;72.60;;;6.88;100.00;95671.28;4950483;28;20029;-49
2024/03/19 07:36:18;;;;;;;46.47;10.18;;;12.60;72.50;;;7.03;100.00;95669.94;4951996;28;20026;-49
2024/03/19 07:38:43;;;;;;;54.58;10.00;;;12.70;72.40;;;7.11;100.00;95675.66;4951323;28;20030;-51
2024/03/19 07:41:10;;;;;;;46.67;10.48;;;12.80;72.50;;;7.21;100.00;95668.88;4951653;28;20041;-52
2024/03/19 07:43:36;;;;;;;35.90;8.55;;;12.90;72.40;;;7.18;100.00;95668.34;4952945;28;20030;-56
2024/03/19 07:46:02;;;;;;;31.42;8.18;;;13.00;72.30;;;7.34;100.00;95672.03;4950932;28;20032;-51
2024/03/19 07:48:27;;;;;;;39.25;8.88;;;13.10;72.30;;;7.46;100.00;95668.47;4951638;28;20023;-54
2024/03/19 07:50:56;;;;;;;44.60;8.95;;;13.20;72.30;;;7.51;100.00;95669.34;4950650;28;20528;-53
2024/03/19 07:53:22;;;;;;;24.17;7.82;;;13.30;72.10;;;7.61;100.00;95672.16;4951736;28;20019;-52
2024/03/19 07:55:48;;;;;;;27.27;8.82;;;13.40;71.90;;;7.72;100.00;95673.13;4951811;28;20030;-54
2024/03/19 07:58:15;;;;;;;32.47;8.68;;;13.50;71.80;;;7.80;100.00;95664.75;4949430;28;20401;-49
2024/03/19 08:00:40;;;;;;;32.80;8.15;;;13.60;71.60;;;7.88;100.00;95666.97;4950796;28;20027;-54
2024/03/19 08:03:07;;;;;;;29.17;8.40;;;13.70;71.60;;;8.01;100.00;95667.66;4949486;28;20040;-53
2024/03/19 08:05:33;;;;;;;31.90;8.32;;;13.80;71.50;;;8.12;100.00;95666.75;4952812;28;20022;-51
2024/03/19 08:07:59;;;;;;;32.63;8.15;;;13.90;71.40;;;8.06;100.00;95673.03;4951237;28;20121;-52
2024/03/19 08:10:25;;;;;;;21.70;8.15;;;14.00;71.20;;;8.22;100.00;95664.22;4948904;28;20034;-51
2024/03/19 08:12:50;;;;;;;28.27;8.23;;;14.20;71.20;;;8.31;100.00;95661.94;4951593;28;20037;-49
2024/03/19 08:15:16;;;;;;;24.58;7.47;;;14.30;71.00;;;8.15;100.00;95660.94;4950323;28;20102;-54
2024/03/19 08:17:42;;;;;;;18.35;7.22;;;14.50;70.90;;;8.30;100.00;95668.28;4951249;28;20018;-50
2024/03/19 08:20:12;;;;;;;18.73;7.45;;;14.70;70.40;;;8.46;100.00;95667.44;4950924;28;20214;-49
2024/03/19 08:22:42;;;;;;;12.93;6.07;;;14.80;70.10;;;8.60;100.00;95673.16;4949310;28;20034;-51
2024/03/19 08:25:13;;;;;;;18.00;6.72;;;14.90;69.90;;;8.65;100.00;95670.56;4951060;28;20027;-53
2024/03/19 08:27:39;;;;;;;15.30;6.85;;;15.00;69.90;;;8.58;100.00;95676.06;4951399;28;20085;-52
2024/03/19 08:30:08;;;;;;;14.63;7.10;;;15.10;69.70;;;8.78;100.00;95669.38;4950932;28;20022;-51
2024/03/19 08:32:36;;;;;;;13.70;7.05;;;15.10;69.70;;;8.82;100.00;95673.13;4950292;28;20054;-55
2024/03/19 08:35:02;;;;;;;14.15;6.82;;;15.40;69.90;;;8.76;100.00;95677.56;4951888;28;20358;-54
2024/03/19 08:37:28;;;;;;;14.00;6.30;;;15.50;69.50;;;8.65;100.00;95683.03;4950371;28;20104;-54
2024/03/19 08:39:54;;;;;;;9.18;5.75;;;15.60;69.10;;;8.94;100.00;95681.75;4950067;28;20066;-55
2024/03/19 08:42:19;;;;;;;7.53;5.32;;;15.70;68.80;;;9.31;100.00;95691.66;4951440;28;20038;-50
2024/03/19 08:44:45;;;;;;;8.75;5.30;;;15.90;68.80;;;9.39;100.00;95691.16;4951148;28;20030;-51
2024/03/19 08:47:11;;;;;;;9.93;6.53;;;16.10;68.70;;;9.34;100.00;95691.13;4951081;28;20050;-53
2024/03/19 08:49:37;;;;;;;9.77;5.97;;;16.20;68.50;;;9.51;100.00;95698.97;4950830;28;20370;-55
2024/03/19 08:52:03;;;;;;;8.25;5.85;;;16.30;68.30;;;9.68;100.00;95693.50;4942019;28;20034;-49
2024/03/19 08:54:29;;;;;;;9.30;6.40;;;16.40;68.00;;;9.86;100.00;95686.97;4950766;28;20023;-51
2024/03/19 08:56:55;;;;;;;8.35;5.60;;;16.60;67.80;;;9.98;100.00;95695.56;4949909;28;20026;-50
2024/03/19 08:59:21;;;;;;;6.90;5.75;;;16.70;67.30;;;10.00;100.00;95696.09;4950940;28;20045;-49
2024/03/19 09:01:47;;;;;;;6.95;5.03;;;16.80;66.60;;;10.12;100.00;95702.03;4950156;28;20035;-50
2024/03/19 09:04:12;;;;;;;5.43;4.88;;;16.80;66.40;;;10.35;100.00;95703.50;4950001;28;20026;-50
2024/03/19 09:06:42;;;;;;;6.25;4.85;;;16.90;66.20;;;10.29;100.00;95709.84;4946831;28;20035;-51
2024/03/19 09:09:08;;;;;;;5.88;4.57;;;17.00;65.60;;;10.31;100.00;95714.91;4950817;28;20034;-51
2024/03/19 09:11:35;;;;;;;6.25;5.25;;;17.00;65.20;;;10.42;100.00;95714.69;4960538;28;20018;-53
2024/03/19 09:14:01;;;;;;;7.30;5.43;;;17.00;65.10;;;10.37;100.00;95711.22;4949116;28;20038;-52
2024/03/19 09:16:27;;;;;;;6.60;5.45;;;17.00;64.60;;;10.30;100.00;95710.66;4944756;28;20053;-54
2024/03/19 09:18:52;;;;;;;8.60;6.05;;;17.10;64.40;;;10.21;100.00;95710.31;4950601;28;20381;-51
2024/03/19 09:21:18;;;;;;;9.35;6.35;;;17.00;64.00;;;10.31;100.00;95712.25;4942831;28;20037;-52
2024/03/19 09:23:44;;;;;;;8.13;6.28;;;16.90;63.80;;;10.33;100.00;95715.47;4962129;28;20041;-52
2024/03/19 09:26:10;;;;;;;6.43;5.25;;;16.90;63.80;;;10.16;100.00;95720.94;4949492;28;20055;-52
2024/03/19 09:28:36;;;;;;;9.38;6.07;;;16.90;63.60;;;10.16;100.00;95712.97;4945283;28;20078;-55
2024/03/19 09:31:02;;;;;;;10.50;5.50;;;16.70;64.20;;;9.93;100.00;95711.47;4947225;28;20039;-52
2024/03/19 09:33:29;;;;;;;7.63;5.68;;;16.70;63.20;;;10.02;100.00;95717.13;4942962;28;20047;-54
2024/03/19 09:35:55;;;;;;;7.28;5.68;;;16.70;63.10;;;10.20;100.00;95720.16;4950240;28;20026;-53
2024/03/19 09:38:21;;;;;;;6.80;5.40;;;16.70;63.20;;;10.21;100.00;95718.28;4946799;28;20063;-56
2024/03/19 09:41:05;;;;;;;8.82;6.15;;;16.70;63.30;;;10.01;100.00;95718.19;4949166;28;20023;-56
2024/03/19 09:43:36;;;;;;;8.85;5.95;;;16.80;62.80;;;10.03;100.00;95716.06;4951371;28;20116;-57
2024/03/19 09:46:04;;;;;;;10.10;7.00;;;16.90;62.50;;;9.98;100.00;95719.50;4948070;28;20029;-56
2024/03/19 09:48:37;;;;;;;9.30;6.97;;;17.00;62.20;;;10.02;100.00;95722.44;4954318;28;20105;-56
2024/03/19 09:51:04;;;;;;;6.45;5.57;;;17.00;62.20;;;9.95;100.00;95715.50;4966790;28;20027;-54
2024/03/19 09:53:31;;;;;;;8.52;6.57;;;16.90;62.20;;;9.89;100.00;95715.72;4953660;28;20026;-56
2024/03/19 09:55:58;;;;;;;7.88;6.95;;;16.70;62.40;;;10.12;100.00;95717.19;4952709;28;20026;-56
2024/03/19 09:58:26;;;;;;;7.53;6.38;;;16.80;62.60;;;10.24;100.00;95717.78;4950277;28;20046;-55
2024/03/19 10:00:54;;;;;;;9.05;7.13;;;16.90;62.30;;;10.22;100.00;95709.25;4950585;28;20058;-50
2024/03/19 10:03:20;;;;;;;8.13;6.35;;;17.10;62.00;;;10.12;100.00;95710.03;4947460;28;20065;-53
2024/03/19 10:05:46;;;;;;;7.47;5.97;;;17.10;61.40;;;10.27;100.00;95706.63;4954427;28;20433;-56
2024/03/19 10:08:15;;;;;;;7.43;6.45;;;17.10;61.10;;;10.37;100.00;95705.88;4953408;28;20031;-53
2024/03/19 10:10:45;;;;;;;10.23;6.10;;;17.20;61.10;;;10.31;100.00;95704.25;4952610;28;20053;-55
2024/03/19 10:13:12;;;;;;;8.48;6.07;;;17.30;60.90;;;10.03;100.00;95700.91;4948399;28;20137;-57